sensor_id;sensor_type;location;lat;lon;timestamp;P1;durP1;ratioP1;P2;durP2;ratioP2
30287;SDS011;17103;48.316;11.558;2022-12-07T00:00:53;3.85;;;3.00;;
30287;SDS011;17103;48.316;11.558;2022-12-07T00:03:19;5.15;;;3.17;;
30287;SDS011;17103;48.316;11.558;2022-12-07T00:05:45;4.15;;;3.10;;
30287;SDS011;17103;48.316;11.558;2022-12-07T00:08:10;3.78;;;3.30;;
30287;SDS011;17103;48.316;11.558;2022-12-07T00:10:36;4.32;;;3.30;;
30287;SDS011;17103;48.316;11.558;2022-12-07T00:13:02;5.10;;;3.33;;
30287;SDS011;17103;48.316;11.558;2022-12-07T00:15:27;4.38;;;3.10;;
30287;SDS011;17103;48.316;11.558;2022-12-07T00:17:53;4.38;;;3.17;;
30287;SDS011;17103;48.316;11.558;2022-12-07T00:20:20;4.57;;;3.50;;
30287;SDS011;17103;48.316;11.558;2022-12-07T00:22:46;3.75;;;2.95;;
30287;SDS011;17103;48.316;11.558;2022-12-07T00:25:11;3.90;;;3.22;;
30287;SDS011;17103;48.316;11.558;2022-12-07T00:27:37;4.97;;;3.55;;
30287;SDS011;17103;48.316;11.558;2022-12-07T00:30:03;6.07;;;3.95;;
30287;SDS011;17103;48.316;11.558;2022-12-07T00:32:29;6.00;;;4.22;;
30287;SDS011;17103;48.316;11.558;2022-12-07T00:34:55;5.30;;;3.60;;
30287;SDS011;17103;48.316;11.558;2022-12-07T00:37:21;5.55;;;4.43;;
30287;SDS011;17103;48.316;11.558;2022-12-07T00:39:46;4.43;;;3.13;;
30287;SDS011;17103;48.316;11.558;2022-12-07T00:42:13;4.72;;;3.67;;
30287;SDS011;17103;48.316;11.558;2022-12-07T00:44:39;5.13;;;3.75;;
30287;SDS011;17103;48.316;11.558;2022-12-07T00:47:05;4.53;;;4.00;;
30287;SDS011;17103;48.316;11.558;2022-12-07T00:52:16;4.70;;;3.58;;
30287;SDS011;17103;48.316;11.558;2022-12-07T00:54:45;5.70;;;4.18;;
30287;SDS011;17103;48.316;11.558;2022-12-07T00:57:12;6.60;;;3.72;;
30287;SDS011;17103;48.316;11.558;2022-12-07T00:59:38;4.88;;;3.13;;
30287;SDS011;17103;48.316;11.558;2022-12-07T01:02:03;5.18;;;3.85;;
30287;SDS011;17103;48.316;11.558;2022-12-07T01:04:29;6.93;;;5.55;;
30287;SDS011;17103;48.316;11.558;2022-12-07T01:06:55;5.65;;;3.40;;
30287;SDS011;17103;48.316;11.558;2022-12-07T01:09:21;3.97;;;3.22;;
30287;SDS011;17103;48.316;11.558;2022-12-07T01:11:47;4.63;;;3.88;;
30287;SDS011;17103;48.316;11.558;2022-12-07T01:14:13;4.97;;;3.80;;
30287;SDS011;17103;48.316;11.558;2022-12-07T01:16:38;7.15;;;4.38;;
30287;SDS011;17103;48.316;11.558;2022-12-07T01:19:08;5.35;;;3.75;;
30287;SDS011;17103;48.316;11.558;2022-12-07T01:21:34;5.75;;;3.92;;
30287;SDS011;17103;48.316;11.558;2022-12-07T01:24:03;6.25;;;3.53;;
30287;SDS011;17103;48.316;11.558;2022-12-07T01:26:31;5.07;;;3.63;;
30287;SDS011;17103;48.316;11.558;2022-12-07T01:28:57;6.68;;;4.20;;
30287;SDS011;17103;48.316;11.558;2022-12-07T01:31:24;6.32;;;3.80;;
30287;SDS011;17103;48.316;11.558;2022-12-07T01:33:52;6.60;;;4.07;;
30287;SDS011;17103;48.316;11.558;2022-12-07T01:36:20;5.88;;;3.92;;
30287;SDS011;17103;48.316;11.558;2022-12-07T01:38:58;4.20;;;3.10;;
30287;SDS011;17103;48.316;11.558;2022-12-07T01:41:27;5.95;;;3.22;;
30287;SDS011;17103;48.316;11.558;2022-12-07T01:47:01;4.88;;;3.33;;
30287;SDS011;17103;48.316;11.558;2022-12-07T01:52:11;5.05;;;3.58;;
30287;SDS011;17103;48.316;11.558;2022-12-07T01:54:42;5.47;;;3.88;;
30287;SDS011;17103;48.316;11.558;2022-12-07T01:57:13;3.97;;;3.40;;
30287;SDS011;17103;48.316;11.558;2022-12-07T01:59:41;6.18;;;3.60;;
30287;SDS011;17103;48.316;11.558;2022-12-07T02:03:11;4.47;;;3.03;;
30287;SDS011;17103;48.316;11.558;2022-12-07T02:05:17;5.40;;;3.22;;
30287;SDS011;17103;48.316;11.558;2022-12-07T02:07:44;5.30;;;3.90;;
30287;SDS011;17103;48.316;11.558;2022-12-07T02:10:16;6.50;;;4.00;;
30287;SDS011;17103;48.316;11.558;2022-12-07T02:12:49;4.20;;;3.65;;
30287;SDS011;17103;48.316;11.558;2022-12-07T02:15:25;3.42;;;2.65;;
30287;SDS011;17103;48.316;11.558;2022-12-07T02:18:16;5.07;;;3.88;;
30287;SDS011;17103;48.316;11.558;2022-12-07T02:21:11;5.07;;;3.97;;
30287;SDS011;17103;48.316;11.558;2022-12-07T02:35:11;4.78;;;3.70;;
30287;SDS011;17103;48.316;11.558;2022-12-07T02:40:36;4.63;;;3.45;;
30287;SDS011;17103;48.316;11.558;2022-12-07T02:43:14;4.63;;;3.53;;
30287;SDS011;17103;48.316;11.558;2022-12-07T02:45:44;6.70;;;3.80;;
30287;SDS011;17103;48.316;11.558;2022-12-07T02:48:12;4.03;;;3.50;;
30287;SDS011;17103;48.316;11.558;2022-12-07T02:50:59;7.55;;;3.80;;
30287;SDS011;17103;48.316;11.558;2022-12-07T02:53:35;5.63;;;3.75;;
30287;SDS011;17103;48.316;11.558;2022-12-07T03:01:45;4.30;;;3.53;;
30287;SDS011;17103;48.316;11.558;2022-12-07T03:04:30;4.72;;;3.92;;
30287;SDS011;17103;48.316;11.558;2022-12-07T03:13:11;4.78;;;3.50;;
30287;SDS011;17103;48.316;11.558;2022-12-07T03:16:08;5.75;;;3.72;;
30287;SDS011;17103;48.316;11.558;2022-12-07T03:18:42;4.82;;;3.42;;
30287;SDS011;17103;48.316;11.558;2022-12-07T03:21:17;4.85;;;3.83;;
30287;SDS011;17103;48.316;11.558;2022-12-07T03:23:48;5.05;;;3.75;;
30287;SDS011;17103;48.316;11.558;2022-12-07T03:26:17;5.00;;;3.90;;
30287;SDS011;17103;48.316;11.558;2022-12-07T03:28:47;5.43;;;3.83;;
30287;SDS011;17103;48.316;11.558;2022-12-07T03:31:23;4.57;;;3.40;;
30287;SDS011;17103;48.316;11.558;2022-12-07T03:36:51;5.80;;;3.65;;
30287;SDS011;17103;48.316;11.558;2022-12-07T03:39:37;6.55;;;4.72;;
30287;SDS011;17103;48.316;11.558;2022-12-07T03:42:10;5.80;;;3.80;;
30287;SDS011;17103;48.316;11.558;2022-12-07T03:44:36;5.63;;;3.70;;
30287;SDS011;17103;48.316;11.558;2022-12-07T03:49:51;5.38;;;3.97;;
30287;SDS011;17103;48.316;11.558;2022-12-07T03:52:28;5.05;;;3.78;;
30287;SDS011;17103;48.316;11.558;2022-12-07T03:55:09;7.03;;;4.90;;
30287;SDS011;17103;48.316;11.558;2022-12-07T03:57:41;6.03;;;4.35;;
30287;SDS011;17103;48.316;11.558;2022-12-07T04:00:10;5.30;;;4.15;;
30287;SDS011;17103;48.316;11.558;2022-12-07T04:02:37;4.93;;;3.78;;
30287;SDS011;17103;48.316;11.558;2022-12-07T04:05:03;5.85;;;4.40;;
30287;SDS011;17103;48.316;11.558;2022-12-07T04:07:30;6.57;;;4.32;;
30287;SDS011;17103;48.316;11.558;2022-12-07T04:09:56;6.07;;;4.47;;
30287;SDS011;17103;48.316;11.558;2022-12-07T04:12:22;8.15;;;4.55;;
30287;SDS011;17103;48.316;11.558;2022-12-07T04:14:48;4.75;;;3.58;;
30287;SDS011;17103;48.316;11.558;2022-12-07T04:17:14;5.70;;;4.32;;
30287;SDS011;17103;48.316;11.558;2022-12-07T04:19:40;4.53;;;3.83;;
30287;SDS011;17103;48.316;11.558;2022-12-07T04:22:06;5.28;;;3.97;;
30287;SDS011;17103;48.316;11.558;2022-12-07T04:24:32;5.03;;;3.85;;
30287;SDS011;17103;48.316;11.558;2022-12-07T04:26:58;5.55;;;4.03;;
30287;SDS011;17103;48.316;11.558;2022-12-07T04:29:24;7.63;;;5.03;;
30287;SDS011;17103;48.316;11.558;2022-12-07T04:31:50;4.93;;;4.07;;
30287;SDS011;17103;48.316;11.558;2022-12-07T04:34:16;5.82;;;3.80;;
30287;SDS011;17103;48.316;11.558;2022-12-07T04:36:43;6.18;;;3.92;;
30287;SDS011;17103;48.316;11.558;2022-12-07T04:39:13;6.05;;;4.68;;
30287;SDS011;17103;48.316;11.558;2022-12-07T04:41:53;5.88;;;4.57;;
30287;SDS011;17103;48.316;11.558;2022-12-07T04:44:19;7.57;;;4.25;;
30287;SDS011;17103;48.316;11.558;2022-12-07T04:46:46;6.70;;;4.63;;
30287;SDS011;17103;48.316;11.558;2022-12-07T04:49:13;5.07;;;4.00;;
30287;SDS011;17103;48.316;11.558;2022-12-07T04:51:39;5.20;;;3.53;;
30287;SDS011;17103;48.316;11.558;2022-12-07T04:54:05;7.50;;;4.10;;
30287;SDS011;17103;48.316;11.558;2022-12-07T04:56:31;6.82;;;4.00;;
30287;SDS011;17103;48.316;11.558;2022-12-07T04:58:57;5.55;;;4.22;;
30287;SDS011;17103;48.316;11.558;2022-12-07T05:01:23;5.45;;;3.67;;
30287;SDS011;17103;48.316;11.558;2022-12-07T05:03:50;4.95;;;3.78;;
30287;SDS011;17103;48.316;11.558;2022-12-07T05:06:16;7.97;;;4.40;;
30287;SDS011;17103;48.316;11.558;2022-12-07T05:08:42;6.15;;;4.15;;
30287;SDS011;17103;48.316;11.558;2022-12-07T05:11:08;5.60;;;3.40;;
30287;SDS011;17103;48.316;11.558;2022-12-07T05:13:55;5.13;;;3.90;;
30287;SDS011;17103;48.316;11.558;2022-12-07T05:16:20;5.25;;;4.07;;
30287;SDS011;17103;48.316;11.558;2022-12-07T05:18:46;5.97;;;4.35;;
30287;SDS011;17103;48.316;11.558;2022-12-07T05:21:12;6.15;;;4.90;;
30287;SDS011;17103;48.316;11.558;2022-12-07T05:23:37;9.35;;;4.53;;
30287;SDS011;17103;48.316;11.558;2022-12-07T05:26:03;6.45;;;3.58;;
30287;SDS011;17103;48.316;11.558;2022-12-07T05:28:29;5.95;;;4.82;;
30287;SDS011;17103;48.316;11.558;2022-12-07T05:30:54;6.90;;;4.75;;
30287;SDS011;17103;48.316;11.558;2022-12-07T05:33:20;5.15;;;3.78;;
30287;SDS011;17103;48.316;11.558;2022-12-07T05:35:45;5.53;;;3.70;;
30287;SDS011;17103;48.316;11.558;2022-12-07T05:38:11;7.75;;;4.70;;
30287;SDS011;17103;48.316;11.558;2022-12-07T05:40:37;5.43;;;4.50;;
30287;SDS011;17103;48.316;11.558;2022-12-07T05:43:02;5.55;;;4.28;;
30287;SDS011;17103;48.316;11.558;2022-12-07T05:45:28;6.15;;;4.13;;
30287;SDS011;17103;48.316;11.558;2022-12-07T05:47:54;6.93;;;4.85;;
30287;SDS011;17103;48.316;11.558;2022-12-07T05:50:20;7.80;;;4.68;;
30287;SDS011;17103;48.316;11.558;2022-12-07T05:52:46;10.23;;;6.47;;
30287;SDS011;17103;48.316;11.558;2022-12-07T05:55:12;8.38;;;6.30;;
30287;SDS011;17103;48.316;11.558;2022-12-07T05:57:38;7.13;;;5.03;;
30287;SDS011;17103;48.316;11.558;2022-12-07T06:00:04;6.40;;;4.72;;
30287;SDS011;17103;48.316;11.558;2022-12-07T06:02:30;8.05;;;5.35;;
30287;SDS011;17103;48.316;11.558;2022-12-07T06:04:56;8.18;;;5.43;;
30287;SDS011;17103;48.316;11.558;2022-12-07T06:07:23;8.52;;;4.22;;
30287;SDS011;17103;48.316;11.558;2022-12-07T06:09:48;8.77;;;5.18;;
30287;SDS011;17103;48.316;11.558;2022-12-07T06:12:14;6.50;;;4.80;;
30287;SDS011;17103;48.316;11.558;2022-12-07T06:14:58;6.30;;;4.80;;
30287;SDS011;17103;48.316;11.558;2022-12-07T06:17:24;6.43;;;5.47;;
30287;SDS011;17103;48.316;11.558;2022-12-07T06:19:50;6.57;;;5.47;;
30287;SDS011;17103;48.316;11.558;2022-12-07T06:22:15;7.50;;;5.88;;
30287;SDS011;17103;48.316;11.558;2022-12-07T06:24:41;8.18;;;5.60;;
30287;SDS011;17103;48.316;11.558;2022-12-07T06:27:07;7.18;;;5.28;;
30287;SDS011;17103;48.316;11.558;2022-12-07T06:29:33;7.03;;;5.47;;
30287;SDS011;17103;48.316;11.558;2022-12-07T06:32:00;7.95;;;5.63;;
30287;SDS011;17103;48.316;11.558;2022-12-07T06:34:26;7.70;;;6.10;;
30287;SDS011;17103;48.316;11.558;2022-12-07T06:36:52;7.55;;;5.68;;
30287;SDS011;17103;48.316;11.558;2022-12-07T06:39:21;7.43;;;5.45;;
30287;SDS011;17103;48.316;11.558;2022-12-07T06:41:49;5.93;;;4.80;;
30287;SDS011;17103;48.316;11.558;2022-12-07T06:44:16;8.45;;;5.97;;
30287;SDS011;17103;48.316;11.558;2022-12-07T06:46:42;7.60;;;5.78;;
30287;SDS011;17103;48.316;11.558;2022-12-07T06:49:08;7.75;;;5.65;;
30287;SDS011;17103;48.316;11.558;2022-12-07T06:51:35;8.43;;;6.05;;
30287;SDS011;17103;48.316;11.558;2022-12-07T06:54:02;8.88;;;5.45;;
30287;SDS011;17103;48.316;11.558;2022-12-07T06:56:29;10.45;;;5.53;;
30287;SDS011;17103;48.316;11.558;2022-12-07T06:58:54;7.32;;;5.75;;
30287;SDS011;17103;48.316;11.558;2022-12-07T07:01:20;7.55;;;5.65;;
30287;SDS011;17103;48.316;11.558;2022-12-07T07:03:46;8.50;;;6.22;;
30287;SDS011;17103;48.316;11.558;2022-12-07T07:06:12;8.63;;;6.07;;
30287;SDS011;17103;48.316;11.558;2022-12-07T07:08:38;7.93;;;5.55;;
30287;SDS011;17103;48.316;11.558;2022-12-07T07:11:05;7.85;;;5.80;;
30287;SDS011;17103;48.316;11.558;2022-12-07T07:13:32;8.52;;;5.78;;
30287;SDS011;17103;48.316;11.558;2022-12-07T07:15:58;8.57;;;6.03;;
30287;SDS011;17103;48.316;11.558;2022-12-07T07:18:23;7.05;;;5.00;;
30287;SDS011;17103;48.316;11.558;2022-12-07T07:20:52;8.60;;;6.18;;
30287;SDS011;17103;48.316;11.558;2022-12-07T07:23:19;7.82;;;5.93;;
30287;SDS011;17103;48.316;11.558;2022-12-07T07:25:46;9.50;;;6.47;;
30287;SDS011;17103;48.316;11.558;2022-12-07T07:28:12;9.15;;;6.38;;
30287;SDS011;17103;48.316;11.558;2022-12-07T07:30:37;8.25;;;5.80;;
30287;SDS011;17103;48.316;11.558;2022-12-07T07:33:05;8.30;;;6.50;;
30287;SDS011;17103;48.316;11.558;2022-12-07T07:35:31;9.27;;;6.25;;
30287;SDS011;17103;48.316;11.558;2022-12-07T07:37:58;9.05;;;5.88;;
30287;SDS011;17103;48.316;11.558;2022-12-07T07:40:25;8.43;;;6.15;;
30287;SDS011;17103;48.316;11.558;2022-12-07T07:42:51;10.30;;;6.88;;
30287;SDS011;17103;48.316;11.558;2022-12-07T07:45:19;9.00;;;6.18;;
30287;SDS011;17103;48.316;11.558;2022-12-07T07:47:45;9.10;;;6.20;;
30287;SDS011;17103;48.316;11.558;2022-12-07T07:50:11;9.45;;;6.65;;
30287;SDS011;17103;48.316;11.558;2022-12-07T07:52:37;7.57;;;5.78;;
30287;SDS011;17103;48.316;11.558;2022-12-07T07:55:03;10.30;;;5.45;;
30287;SDS011;17103;48.316;11.558;2022-12-07T07:57:29;9.32;;;6.47;;
30287;SDS011;17103;48.316;11.558;2022-12-07T07:59:54;8.02;;;6.30;;
30287;SDS011;17103;48.316;11.558;2022-12-07T08:02:20;10.02;;;6.97;;
30287;SDS011;17103;48.316;11.558;2022-12-07T08:04:47;11.07;;;6.45;;
30287;SDS011;17103;48.316;11.558;2022-12-07T08:07:13;10.85;;;6.78;;
30287;SDS011;17103;48.316;11.558;2022-12-07T08:09:40;10.52;;;7.53;;
30287;SDS011;17103;48.316;11.558;2022-12-07T08:12:06;16.80;;;11.20;;
30287;SDS011;17103;48.316;11.558;2022-12-07T08:14:32;10.98;;;6.97;;
30287;SDS011;17103;48.316;11.558;2022-12-07T08:16:58;12.35;;;8.30;;
30287;SDS011;17103;48.316;11.558;2022-12-07T08:19:24;12.20;;;8.52;;
30287;SDS011;17103;48.316;11.558;2022-12-07T08:21:51;11.40;;;7.93;;
30287;SDS011;17103;48.316;11.558;2022-12-07T08:24:22;10.25;;;7.82;;
30287;SDS011;17103;48.316;11.558;2022-12-07T08:26:50;11.63;;;8.25;;
30287;SDS011;17103;48.316;11.558;2022-12-07T08:29:16;11.38;;;7.72;;
30287;SDS011;17103;48.316;11.558;2022-12-07T08:31:42;11.27;;;7.63;;
30287;SDS011;17103;48.316;11.558;2022-12-07T08:34:10;11.60;;;7.93;;
30287;SDS011;17103;48.316;11.558;2022-12-07T08:36:36;12.85;;;8.60;;
30287;SDS011;17103;48.316;11.558;2022-12-07T08:39:02;11.35;;;7.70;;
30287;SDS011;17103;48.316;11.558;2022-12-07T08:41:28;10.63;;;8.10;;
30287;SDS011;17103;48.316;11.558;2022-12-07T08:43:54;11.43;;;7.97;;
30287;SDS011;17103;48.316;11.558;2022-12-07T08:46:31;11.75;;;8.10;;
30287;SDS011;17103;48.316;11.558;2022-12-07T08:49:11;10.95;;;7.60;;
30287;SDS011;17103;48.316;11.558;2022-12-07T08:51:41;10.15;;;7.40;;
30287;SDS011;17103;48.316;11.558;2022-12-07T08:54:08;10.85;;;8.32;;
30287;SDS011;17103;48.316;11.558;2022-12-07T08:56:36;12.38;;;7.65;;
30287;SDS011;17103;48.316;11.558;2022-12-07T08:59:04;11.93;;;8.18;;
30287;SDS011;17103;48.316;11.558;2022-12-07T09:01:30;12.02;;;7.93;;
30287;SDS011;17103;48.316;11.558;2022-12-07T09:03:56;11.68;;;7.70;;
30287;SDS011;17103;48.316;11.558;2022-12-07T09:06:21;10.95;;;7.50;;
30287;SDS011;17103;48.316;11.558;2022-12-07T09:08:49;13.43;;;8.52;;
30287;SDS011;17103;48.316;11.558;2022-12-07T09:11:17;11.43;;;7.28;;
30287;SDS011;17103;48.316;11.558;2022-12-07T09:13:43;10.82;;;7.00;;
30287;SDS011;17103;48.316;11.558;2022-12-07T09:16:09;12.02;;;7.80;;
30287;SDS011;17103;48.316;11.558;2022-12-07T09:18:34;16.75;;;9.82;;
30287;SDS011;17103;48.316;11.558;2022-12-07T09:21:00;26.27;;;14.88;;
30287;SDS011;17103;48.316;11.558;2022-12-07T09:23:25;15.93;;;9.52;;
30287;SDS011;17103;48.316;11.558;2022-12-07T09:25:51;17.48;;;10.13;;
30287;SDS011;17103;48.316;11.558;2022-12-07T09:28:17;14.30;;;8.30;;
30287;SDS011;17103;48.316;11.558;2022-12-07T09:30:46;15.70;;;9.43;;
30287;SDS011;17103;48.316;11.558;2022-12-07T09:33:13;15.75;;;8.98;;
30287;SDS011;17103;48.316;11.558;2022-12-07T09:35:43;13.68;;;9.32;;
30287;SDS011;17103;48.316;11.558;2022-12-07T09:38:13;14.20;;;9.27;;
30287;SDS011;17103;48.316;11.558;2022-12-07T09:40:39;13.32;;;9.18;;
30287;SDS011;17103;48.316;11.558;2022-12-07T09:45:50;14.23;;;9.07;;
30287;SDS011;17103;48.316;11.558;2022-12-07T09:48:22;12.50;;;7.93;;
30287;SDS011;17103;48.316;11.558;2022-12-07T09:50:58;12.95;;;7.88;;
30287;SDS011;17103;48.316;11.558;2022-12-07T09:53:36;22.80;;;14.77;;
30287;SDS011;17103;48.316;11.558;2022-12-07T09:56:03;18.67;;;11.55;;
30287;SDS011;17103;48.316;11.558;2022-12-07T09:58:30;12.85;;;9.25;;
30287;SDS011;17103;48.316;11.558;2022-12-07T10:03:37;13.80;;;8.90;;
30287;SDS011;17103;48.316;11.558;2022-12-07T10:06:04;15.50;;;9.70;;
30287;SDS011;17103;48.316;11.558;2022-12-07T10:08:31;13.32;;;8.60;;
30287;SDS011;17103;48.316;11.558;2022-12-07T10:10:58;14.65;;;10.05;;
30287;SDS011;17103;48.316;11.558;2022-12-07T10:13:42;34.85;;;18.50;;
30287;SDS011;17103;48.316;11.558;2022-12-07T10:19:30;13.93;;;8.95;;
30287;SDS011;17103;48.316;11.558;2022-12-07T10:22:04;16.02;;;10.68;;
30287;SDS011;17103;48.316;11.558;2022-12-07T10:24:41;16.30;;;10.32;;
30287;SDS011;17103;48.316;11.558;2022-12-07T10:27:22;17.23;;;9.38;;
30287;SDS011;17103;48.316;11.558;2022-12-07T10:29:54;69.25;;;28.98;;
30287;SDS011;17103;48.316;11.558;2022-12-07T10:32:35;21.73;;;13.40;;
30287;SDS011;17103;48.316;11.558;2022-12-07T10:37:50;25.52;;;12.98;;
30287;SDS011;17103;48.316;11.558;2022-12-07T10:42:59;14.30;;;8.45;;
30287;SDS011;17103;48.316;11.558;2022-12-07T10:45:27;18.10;;;10.45;;
30287;SDS011;17103;48.316;11.558;2022-12-07T10:47:57;16.33;;;11.10;;
30287;SDS011;17103;48.316;11.558;2022-12-07T10:50:37;13.85;;;9.68;;
30287;SDS011;17103;48.316;11.558;2022-12-07T10:55:40;10.45;;;6.85;;
30287;SDS011;17103;48.316;11.558;2022-12-07T10:58:28;7.32;;;5.63;;
30287;SDS011;17103;48.316;11.558;2022-12-07T11:06:33;8.63;;;5.63;;
30287;SDS011;17103;48.316;11.558;2022-12-07T11:09:16;8.77;;;5.18;;
30287;SDS011;17103;48.316;11.558;2022-12-07T11:14:28;7.80;;;5.47;;
30287;SDS011;17103;48.316;11.558;2022-12-07T11:25:16;10.50;;;7.22;;
30287;SDS011;17103;48.316;11.558;2022-12-07T11:30:52;13.10;;;10.48;;
30287;SDS011;17103;48.316;11.558;2022-12-07T11:42:13;9.98;;;6.80;;
30287;SDS011;17103;48.316;11.558;2022-12-07T11:55:44;11.60;;;7.32;;
30287;SDS011;17103;48.316;11.558;2022-12-07T12:04:07;10.30;;;6.82;;
30287;SDS011;17103;48.316;11.558;2022-12-07T12:06:34;13.68;;;8.07;;
30287;SDS011;17103;48.316;11.558;2022-12-07T12:17:31;8.77;;;5.70;;
30287;SDS011;17103;48.316;11.558;2022-12-07T12:22:49;11.43;;;5.68;;
30287;SDS011;17103;48.316;11.558;2022-12-07T12:28:16;11.10;;;7.20;;
30287;SDS011;17103;48.316;11.558;2022-12-07T12:33:42;8.48;;;6.15;;
30287;SDS011;17103;48.316;11.558;2022-12-07T12:39:09;8.95;;;6.38;;
30287;SDS011;17103;48.316;11.558;2022-12-07T12:49:42;10.25;;;7.30;;
30287;SDS011;17103;48.316;11.558;2022-12-07T12:57:35;10.05;;;5.20;;
30287;SDS011;17103;48.316;11.558;2022-12-07T13:00:22;9.02;;;5.68;;
30287;SDS011;17103;48.316;11.558;2022-12-07T13:02:54;7.55;;;4.55;;
30287;SDS011;17103;48.316;11.558;2022-12-07T13:05:27;6.95;;;4.45;;
30287;SDS011;17103;48.316;11.558;2022-12-07T13:08:03;6.63;;;4.72;;
30287;SDS011;17103;48.316;11.558;2022-12-07T13:10:43;6.93;;;4.78;;
30287;SDS011;17103;48.316;11.558;2022-12-07T13:24:08;7.70;;;5.00;;
30287;SDS011;17103;48.316;11.558;2022-12-07T13:28:52;6.68;;;3.95;;
30287;SDS011;17103;48.316;11.558;2022-12-07T13:36:52;7.30;;;5.15;;
30287;SDS011;17103;48.316;11.558;2022-12-07T13:39:21;7.53;;;4.38;;
30287;SDS011;17103;48.316;11.558;2022-12-07T13:41:50;7.18;;;4.45;;
30287;SDS011;17103;48.316;11.558;2022-12-07T13:44:22;7.90;;;4.97;;
30287;SDS011;17103;48.316;11.558;2022-12-07T13:49:47;8.02;;;5.28;;
30287;SDS011;17103;48.316;11.558;2022-12-07T13:52:24;7.43;;;4.68;;
30287;SDS011;17103;48.316;11.558;2022-12-07T13:57:47;8.77;;;5.32;;
30287;SDS011;17103;48.316;11.558;2022-12-07T14:03:00;6.88;;;3.97;;
30287;SDS011;17103;48.316;11.558;2022-12-07T14:05:29;7.45;;;4.63;;
30287;SDS011;17103;48.316;11.558;2022-12-07T14:08:04;7.07;;;4.57;;
30287;SDS011;17103;48.316;11.558;2022-12-07T14:13:36;8.50;;;5.40;;
30287;SDS011;17103;48.316;11.558;2022-12-07T14:16:23;8.93;;;5.25;;
30287;SDS011;17103;48.316;11.558;2022-12-07T14:18:57;8.05;;;4.70;;
30287;SDS011;17103;48.316;11.558;2022-12-07T14:21:29;8.65;;;5.15;;
30287;SDS011;17103;48.316;11.558;2022-12-07T14:24:16;9.07;;;5.57;;
30287;SDS011;17103;48.316;11.558;2022-12-07T14:26:47;9.45;;;4.68;;
30287;SDS011;17103;48.316;11.558;2022-12-07T14:29:21;7.45;;;4.65;;
30287;SDS011;17103;48.316;11.558;2022-12-07T14:31:50;10.98;;;5.72;;
30287;SDS011;17103;48.316;11.558;2022-12-07T14:34:19;8.23;;;5.45;;
30287;SDS011;17103;48.316;11.558;2022-12-07T14:36:49;8.70;;;5.28;;
30287;SDS011;17103;48.316;11.558;2022-12-07T14:39:16;8.05;;;4.93;;
30287;SDS011;17103;48.316;11.558;2022-12-07T14:41:41;7.57;;;5.40;;
30287;SDS011;17103;48.316;11.558;2022-12-07T14:44:16;9.38;;;5.32;;
30287;SDS011;17103;48.316;11.558;2022-12-07T14:46:43;9.70;;;5.15;;
30287;SDS011;17103;48.316;11.558;2022-12-07T14:49:09;9.25;;;5.80;;
30287;SDS011;17103;48.316;11.558;2022-12-07T14:51:36;8.70;;;5.70;;
30287;SDS011;17103;48.316;11.558;2022-12-07T14:54:05;7.10;;;4.53;;
30287;SDS011;17103;48.316;11.558;2022-12-07T14:56:34;8.23;;;4.85;;
30287;SDS011;17103;48.316;11.558;2022-12-07T14:59:00;7.35;;;5.20;;
30287;SDS011;17103;48.316;11.558;2022-12-07T15:01:25;8.88;;;5.05;;
30287;SDS011;17103;48.316;11.558;2022-12-07T15:03:54;8.68;;;5.35;;
30287;SDS011;17103;48.316;11.558;2022-12-07T15:06:26;10.25;;;5.13;;
30287;SDS011;17103;48.316;11.558;2022-12-07T15:08:52;8.30;;;5.28;;
30287;SDS011;17103;48.316;11.558;2022-12-07T15:11:18;11.02;;;6.95;;
30287;SDS011;17103;48.316;11.558;2022-12-07T15:13:44;8.77;;;5.18;;
30287;SDS011;17103;48.316;11.558;2022-12-07T15:16:28;15.23;;;8.32;;
30287;SDS011;17103;48.316;11.558;2022-12-07T15:18:54;21.80;;;11.30;;
30287;SDS011;17103;48.316;11.558;2022-12-07T15:21:19;87.50;;;33.05;;
30287;SDS011;17103;48.316;11.558;2022-12-07T15:23:46;80.00;;;35.55;;
30287;SDS011;17103;48.316;11.558;2022-12-07T15:26:12;20.60;;;10.02;;
30287;SDS011;17103;48.316;11.558;2022-12-07T15:28:38;43.80;;;18.67;;
30287;SDS011;17103;48.316;11.558;2022-12-07T15:31:10;100.85;;;36.92;;
30287;SDS011;17103;48.316;11.558;2022-12-07T15:33:40;18.58;;;9.25;;
30287;SDS011;17103;48.316;11.558;2022-12-07T15:36:06;13.18;;;7.90;;
30287;SDS011;17103;48.316;11.558;2022-12-07T15:38:38;10.82;;;6.43;;
30287;SDS011;17103;48.316;11.558;2022-12-07T15:41:04;11.15;;;7.15;;
30287;SDS011;17103;48.316;11.558;2022-12-07T15:43:29;8.77;;;6.40;;
30287;SDS011;17103;48.316;11.558;2022-12-07T15:46:14;11.90;;;6.55;;
30287;SDS011;17103;48.316;11.558;2022-12-07T15:48:39;11.98;;;6.70;;
30287;SDS011;17103;48.316;11.558;2022-12-07T15:51:08;13.65;;;7.57;;
30287;SDS011;17103;48.316;11.558;2022-12-07T15:53:34;12.10;;;7.35;;
30287;SDS011;17103;48.316;11.558;2022-12-07T15:56:01;15.30;;;10.30;;
30287;SDS011;17103;48.316;11.558;2022-12-07T15:58:33;11.60;;;8.52;;
30287;SDS011;17103;48.316;11.558;2022-12-07T16:00:59;11.40;;;6.82;;
30287;SDS011;17103;48.316;11.558;2022-12-07T16:03:26;11.13;;;8.15;;
30287;SDS011;17103;48.316;11.558;2022-12-07T16:05:52;10.27;;;7.55;;
30287;SDS011;17103;48.316;11.558;2022-12-07T16:08:18;10.18;;;6.25;;
30287;SDS011;17103;48.316;11.558;2022-12-07T16:10:45;10.90;;;6.47;;
30287;SDS011;17103;48.316;11.558;2022-12-07T16:13:11;11.13;;;6.82;;
30287;SDS011;17103;48.316;11.558;2022-12-07T16:15:40;11.20;;;7.82;;
30287;SDS011;17103;48.316;11.558;2022-12-07T16:18:06;10.95;;;6.15;;
30287;SDS011;17103;48.316;11.558;2022-12-07T16:20:32;8.68;;;5.90;;
30287;SDS011;17103;48.316;11.558;2022-12-07T16:22:58;10.88;;;7.38;;
30287;SDS011;17103;48.316;11.558;2022-12-07T16:25:24;20.77;;;13.00;;
30287;SDS011;17103;48.316;11.558;2022-12-07T16:27:50;13.77;;;8.65;;
30287;SDS011;17103;48.316;11.558;2022-12-07T16:30:17;13.82;;;8.07;;
30287;SDS011;17103;48.316;11.558;2022-12-07T16:32:42;10.75;;;6.78;;
30287;SDS011;17103;48.316;11.558;2022-12-07T16:35:08;10.75;;;6.22;;
30287;SDS011;17103;48.316;11.558;2022-12-07T16:37:35;10.98;;;6.47;;
30287;SDS011;17103;48.316;11.558;2022-12-07T16:40:00;12.82;;;6.47;;
30287;SDS011;17103;48.316;11.558;2022-12-07T16:42:30;13.70;;;7.32;;
30287;SDS011;17103;48.316;11.558;2022-12-07T16:44:57;12.10;;;7.05;;
30287;SDS011;17103;48.316;11.558;2022-12-07T16:47:23;10.05;;;6.38;;
30287;SDS011;17103;48.316;11.558;2022-12-07T16:49:48;12.30;;;8.80;;
30287;SDS011;17103;48.316;11.558;2022-12-07T16:52:14;12.63;;;8.77;;
30287;SDS011;17103;48.316;11.558;2022-12-07T16:54:39;20.38;;;13.38;;
30287;SDS011;17103;48.316;11.558;2022-12-07T16:57:05;13.80;;;8.73;;
30287;SDS011;17103;48.316;11.558;2022-12-07T16:59:31;11.70;;;8.73;;
30287;SDS011;17103;48.316;11.558;2022-12-07T17:01:56;11.35;;;7.45;;
30287;SDS011;17103;48.316;11.558;2022-12-07T17:04:22;10.23;;;6.30;;
30287;SDS011;17103;48.316;11.558;2022-12-07T17:06:47;11.55;;;7.13;;
30287;SDS011;17103;48.316;11.558;2022-12-07T17:09:13;10.35;;;6.68;;
30287;SDS011;17103;48.316;11.558;2022-12-07T17:11:39;11.77;;;7.50;;
30287;SDS011;17103;48.316;11.558;2022-12-07T17:14:09;9.23;;;5.85;;
30287;SDS011;17103;48.316;11.558;2022-12-07T17:16:53;12.30;;;6.78;;
30287;SDS011;17103;48.316;11.558;2022-12-07T17:19:19;10.13;;;6.47;;
30287;SDS011;17103;48.316;11.558;2022-12-07T17:21:45;12.50;;;7.28;;
30287;SDS011;17103;48.316;11.558;2022-12-07T17:24:13;13.25;;;8.07;;